Our Location

356 (Felixstowe) Squadron SHQ,
Carr Road,
Felixstowe,
IP11 3RX

Tel: 01394 673419 Mon/Wed Evenings

email: This email address is being protected from spambots. You need JavaScript enabled to view it.

Air Cadet Magazine

Fx Cdt Futurepilot B&W

Absence Form

Cdt Hawk Pilot

Aviation Weather - Wattisham

[source: ADDS]
METAR
EGUW 290450Z AUTO 07005KT 9000 BR BKN009/// 14/13 Q1012 =
TAF
You are here: Home